createdAt,value
2022-12-20T00:02:50.270Z,9.08
2022-12-20T00:07:54.561Z,8.98
2022-12-20T00:12:57.396Z,8.98
2022-12-20T00:18:00.344Z,9.08
2022-12-20T00:23:04.914Z,9.10
2022-12-20T00:28:07.753Z,9.13
2022-12-20T00:33:10.732Z,9.19
2022-12-20T00:38:15.002Z,9.14
2022-12-20T00:43:17.868Z,9.05
2022-12-20T00:48:20.744Z,9.02
2022-12-20T00:53:26.725Z,9.05
2022-12-20T00:58:29.838Z,9.13
2022-12-20T01:03:33.293Z,9.09
2022-12-20T01:08:37.681Z,9.06
2022-12-20T01:13:43.359Z,9.00
2022-12-20T01:18:46.716Z,9.00
2022-12-20T01:23:51.086Z,9.06
2022-12-20T01:28:55.212Z,8.99
2022-12-20T01:33:58.538Z,8.96
2022-12-20T01:39:03.859Z,8.99
2022-12-20T01:44:28.035Z,9.04
2022-12-20T01:49:33.608Z,9.00
2022-12-20T01:54:41.603Z,8.97
2022-12-20T01:59:46.047Z,9.01
2022-12-20T02:04:48.949Z,8.98
2022-12-20T02:09:53.900Z,8.98
2022-12-20T02:15:05.422Z,8.95
2022-12-20T02:20:23.608Z,8.94
2022-12-20T02:25:43.961Z,8.97
2022-12-20T02:30:50.346Z,8.87
2022-12-20T02:35:53.218Z,8.91
2022-12-20T02:40:59.304Z,8.88
2022-12-20T02:46:03.972Z,8.97
2022-12-20T02:51:07.431Z,8.99
2022-12-20T02:56:13.781Z,9.19
2022-12-20T03:01:23.331Z,9.29
2022-12-20T03:06:26.831Z,9.33
2022-12-20T03:11:29.971Z,9.31
2022-12-20T03:16:34.384Z,9.33
2022-12-20T03:21:37.312Z,9.36
2022-12-20T03:26:42.650Z,9.46
2022-12-20T03:31:47.551Z,9.47
2022-12-20T03:36:50.576Z,9.47
2022-12-20T03:41:53.532Z,9.54
2022-12-20T03:46:57.893Z,9.51
2022-12-20T03:52:00.740Z,9.55
2022-12-20T03:57:03.957Z,9.57
2022-12-20T04:02:08.905Z,9.60
2022-12-20T04:07:12.381Z,9.60
2022-12-20T04:12:19.865Z,9.62
2022-12-20T04:17:24.120Z,9.69
2022-12-20T04:22:27.517Z,9.57
2022-12-20T04:27:38.121Z,9.65
2022-12-20T04:32:45.749Z,9.60
2022-12-20T04:37:50.714Z,9.58
2022-12-20T04:42:54.000Z,9.65
2022-12-20T04:48:00.391Z,9.61
2022-12-20T04:53:31.930Z,9.70
2022-12-20T04:58:35.226Z,9.69
2022-12-20T05:03:42.371Z,9.70
2022-12-20T05:08:46.295Z,9.85
2022-12-20T05:13:49.671Z,9.87
2022-12-20T05:18:56.679Z,9.76
2022-12-20T05:24:17.225Z,9.56
2022-12-20T05:29:45.026Z,9.39
2022-12-20T05:34:49.284Z,9.43
2022-12-20T05:39:53.754Z,9.40
2022-12-20T05:45:00.986Z,9.37
2022-12-20T05:50:16.657Z,9.33
2022-12-20T05:55:44.972Z,9.21
2022-12-20T06:00:48.430Z,9.23
2022-12-20T06:05:52.833Z,9.30
2022-12-20T06:11:04.756Z,9.35
2022-12-20T06:16:11.203Z,9.34
2022-12-20T06:21:16.331Z,9.35
2022-12-20T06:26:19.770Z,9.42
2022-12-20T06:31:26.447Z,9.41
2022-12-20T06:36:32.688Z,9.44
2022-12-20T06:41:36.582Z,9.56
2022-12-20T06:46:40.023Z,9.56
2022-12-20T06:51:45.079Z,9.63
2022-12-20T06:56:48.872Z,9.71
2022-12-20T07:01:52.855Z,9.70
2022-12-20T07:07:00.640Z,9.68
2022-12-20T07:12:03.650Z,9.67
2022-12-20T07:17:07.642Z,9.70
2022-12-20T07:22:12.024Z,9.80
2022-12-20T07:27:15.153Z,9.82
2022-12-20T07:32:18.441Z,9.97
2022-12-20T07:37:23.011Z,9.91
2022-12-20T07:42:29.032Z,9.98
2022-12-20T07:47:37.361Z,10.02
2022-12-20T07:52:43.905Z,10.07
2022-12-20T07:57:49.579Z,10.13
2022-12-20T08:02:56.740Z,10.19
2022-12-20T08:08:01.261Z,10.20
2022-12-20T08:13:05.087Z,10.23
2022-12-20T08:18:08.182Z,10.33
2022-12-20T08:23:12.580Z,10.34
2022-12-20T08:28:15.642Z,10.27
2022-12-20T08:33:18.892Z,10.22
2022-12-20T08:38:23.259Z,10.20
2022-12-20T08:43:26.296Z,10.17
2022-12-20T08:48:29.594Z,10.04
2022-12-20T08:53:34.801Z,9.85
2022-12-20T08:58:38.399Z,9.93
2022-12-20T09:03:41.735Z,9.89
2022-12-20T09:08:46.338Z,9.92
2022-12-20T09:13:50.704Z,9.90
2022-12-20T09:19:00.729Z,9.89
2022-12-20T09:24:10.376Z,9.88
2022-12-20T09:29:13.552Z,9.92
2022-12-20T09:34:16.673Z,9.97
2022-12-20T09:39:21.145Z,10.09
2022-12-20T09:44:27.438Z,10.14
2022-12-20T09:49:33.055Z,10.24
2022-12-20T09:54:41.568Z,10.29
2022-12-20T09:59:49.544Z,10.36
2022-12-20T10:04:53.918Z,10.43
2022-12-20T10:10:15.622Z,10.39
2022-12-20T10:15:22.843Z,10.42
2022-12-20T10:20:35.456Z,10.11
2022-12-20T10:25:41.560Z,10.34
2022-12-20T10:30:45.318Z,10.38
2022-12-20T10:35:48.736Z,10.39
2022-12-20T10:41:22.985Z,10.35
2022-12-20T10:46:36.673Z,10.34
2022-12-20T10:51:39.911Z,10.38
2022-12-20T10:56:56.410Z,10.39
2022-12-20T11:01:59.673Z,10.43
2022-12-20T11:07:05.908Z,10.42
2022-12-20T11:12:14.679Z,10.42
2022-12-20T11:17:26.566Z,10.49
2022-12-20T11:22:39.700Z,10.52
2022-12-20T11:27:52.134Z,10.62
2022-12-20T11:33:24.834Z,10.66
2022-12-20T11:38:38.829Z,10.70
2022-12-20T11:49:48.602Z,10.72
2022-12-20T11:54:59.140Z,10.74
2022-12-20T12:00:04.083Z,10.81
2022-12-20T12:05:19.630Z,10.87
2022-12-20T12:10:24.774Z,10.92
2022-12-20T12:15:33.053Z,10.96
2022-12-20T12:20:42.429Z,10.93
2022-12-20T12:25:45.570Z,10.92
2022-12-20T12:30:55.024Z,10.91
2022-12-20T12:36:33.569Z,10.92
2022-12-20T12:42:09.296Z,10.91
2022-12-20T12:47:17.654Z,10.87
2022-12-20T12:52:42.788Z,10.92
2022-12-20T12:57:56.775Z,10.98
2022-12-20T13:03:07.104Z,10.98
2022-12-20T13:08:17.503Z,11.01
2022-12-20T13:13:25.178Z,10.98
2022-12-20T13:18:30.443Z,11.00
2022-12-20T13:23:33.908Z,11.02
2022-12-20T13:28:47.184Z,11.01
2022-12-20T13:33:52.841Z,11.05
2022-12-20T13:38:58.176Z,10.99
2022-12-20T13:44:04.376Z,11.03
2022-12-20T13:49:11.691Z,11.03
2022-12-20T13:54:25.213Z,11.07
2022-12-20T13:59:33.357Z,11.04
2022-12-20T14:04:43.004Z,10.90
2022-12-20T14:09:48.260Z,10.93
2022-12-20T14:14:52.469Z,10.96
2022-12-20T14:20:16.070Z,10.94
2022-12-20T14:25:25.093Z,10.97
2022-12-20T14:30:31.985Z,10.95
2022-12-20T14:35:36.419Z,10.90
2022-12-20T14:40:42.481Z,10.87
2022-12-20T14:45:46.127Z,10.83
2022-12-20T14:50:55.029Z,10.76
2022-12-20T14:55:58.279Z,10.81
2022-12-20T15:01:04.025Z,10.74
2022-12-20T15:06:35.727Z,10.71
2022-12-20T15:11:39.678Z,10.70
2022-12-20T15:16:49.876Z,10.67
2022-12-20T15:21:55.030Z,10.71
2022-12-20T15:26:58.141Z,10.67
2022-12-20T15:32:06.709Z,10.65
2022-12-20T15:37:18.414Z,10.62
2022-12-20T15:42:23.057Z,10.60
2022-12-20T15:47:26.081Z,10.56
2022-12-20T15:52:30.542Z,10.56
2022-12-20T15:57:34.379Z,10.49
2022-12-20T16:02:37.675Z,10.51
2022-12-20T16:07:42.305Z,10.50
2022-12-20T16:12:45.341Z,10.69
2022-12-20T16:17:48.382Z,10.63
2022-12-20T16:22:52.937Z,10.59
2022-12-20T16:27:56.064Z,10.43
2022-12-20T16:32:59.869Z,10.35
2022-12-20T16:38:04.825Z,10.25
2022-12-20T16:43:15.185Z,10.34
2022-12-20T16:48:18.868Z,10.21
2022-12-20T16:53:23.216Z,10.20
2022-12-20T16:58:52.392Z,10.15
2022-12-20T17:03:49.368Z,10.12
2022-12-20T17:08:53.884Z,10.15
2022-12-20T17:13:57.605Z,10.28
2022-12-20T17:19:00.727Z,10.26
2022-12-20T17:24:07.069Z,10.37
2022-12-20T17:29:10.949Z,10.17
2022-12-20T17:34:18.140Z,10.10
2022-12-20T17:39:22.879Z,10.11
2022-12-20T17:44:27.134Z,10.12
2022-12-20T17:49:30.157Z,10.16
2022-12-20T17:54:40.087Z,10.10
2022-12-20T17:59:43.622Z,10.19
2022-12-20T18:04:47.145Z,10.05
2022-12-20T18:09:51.469Z,9.83
2022-12-20T18:14:54.378Z,9.92
2022-12-20T18:19:57.815Z,9.84
2022-12-20T18:25:03.811Z,9.80
2022-12-20T18:30:07.985Z,9.70
2022-12-20T18:35:11.608Z,9.62
2022-12-20T18:40:15.965Z,9.46
2022-12-20T18:45:18.746Z,9.47
2022-12-20T18:50:21.540Z,9.48
2022-12-20T18:55:25.680Z,9.51
2022-12-20T19:00:28.412Z,9.55
2022-12-20T19:05:34.219Z,9.66
2022-12-20T19:10:38.422Z,9.44
2022-12-20T19:15:41.284Z,9.33
2022-12-20T19:20:44.085Z,9.28
2022-12-20T19:25:48.315Z,9.33
2022-12-20T19:30:51.265Z,8.97
2022-12-20T19:35:56.232Z,9.22
2022-12-20T19:41:01.695Z,9.28
2022-12-20T19:46:04.985Z,9.30
2022-12-20T19:51:10.254Z,9.34
2022-12-20T19:56:16.684Z,9.26
2022-12-20T20:01:21.455Z,9.13
2022-12-20T20:06:25.365Z,9.09
2022-12-20T20:11:29.712Z,9.32
2022-12-20T20:16:32.745Z,9.10
2022-12-20T20:21:38.836Z,8.92
2022-12-20T20:26:43.140Z,9.01
2022-12-20T20:31:46.025Z,8.89
2022-12-20T20:36:48.919Z,8.94
2022-12-20T20:41:53.142Z,8.97
2022-12-20T20:46:55.988Z,8.92
2022-12-20T20:51:58.798Z,9.04
2022-12-20T20:57:03.050Z,8.93
2022-12-20T21:02:06.167Z,9.03
2022-12-20T21:07:09.017Z,8.89
2022-12-20T21:12:13.540Z,8.82
2022-12-20T21:17:16.472Z,8.85
2022-12-20T21:22:19.275Z,8.71
2022-12-20T21:27:23.443Z,8.64
2022-12-20T21:32:26.270Z,8.79
2022-12-20T21:37:31.204Z,8.71
2022-12-20T21:42:35.390Z,8.55
2022-12-20T21:47:38.588Z,8.54
2022-12-20T21:52:41.388Z,8.50
2022-12-20T21:57:48.025Z,8.32
2022-12-20T22:02:51.124Z,8.26
2022-12-20T22:07:54.077Z,8.29
2022-12-20T22:12:58.299Z,8.10
2022-12-20T22:18:01.177Z,8.10
2022-12-20T22:23:04.387Z,8.10
2022-12-20T22:28:08.564Z,8.01
2022-12-20T22:33:11.372Z,7.91
2022-12-20T22:38:14.163Z,7.65
2022-12-20T22:43:18.551Z,7.71
2022-12-20T22:48:21.412Z,7.66
2022-12-20T22:53:24.225Z,7.48
2022-12-20T22:58:30.339Z,7.36
2022-12-20T23:03:33.645Z,7.27
2022-12-20T23:08:37.942Z,7.15
2022-12-20T23:13:59.729Z,7.00
2022-12-20T23:19:03.235Z,6.92
2022-12-20T23:24:06.721Z,6.97
2022-12-20T23:29:11.483Z,7.10
2022-12-20T23:34:14.294Z,7.01
2022-12-20T23:39:17.089Z,6.88
2022-12-20T23:44:21.393Z,6.84
2022-12-20T23:49:24.257Z,6.78
2022-12-20T23:54:27.056Z,6.80
2022-12-20T23:59:31.232Z,6.67
